Time;durP1;ratioP1;P1;durP2;ratioP2;P2;SDS_P1;SDS_P2;PMS_P1;PMS_P2;Temp;Humidity;BMP_temperature;BMP_pressure;BME280_temperature;BME280_humidity;BME280_pressure;Samples;Min_cycle;Max_cycle;Signal;HPM_P1;HPM_P2
2022/06/20 00:01:19;;;;;;;2.20;1.10;;;;;;;22.66;46.86;99290.88;4446086;32;33750;-83
2022/06/20 00:03:49;;;;;;;1.75;1.00;;;;;;;22.32;46.85;99291.41;4438785;32;33936;-82
2022/06/20 00:06:20;;;;;;;1.83;1.00;;;;;;;22.24;47.07;99287.59;4439429;32;33819;-82
2022/06/20 00:08:51;;;;;;;2.30;1.30;;;;;;;22.41;46.69;99287.31;4439009;32;32650;-82
2022/06/20 00:11:23;;;;;;;3.60;1.25;;;;;;;22.50;46.24;99285.84;4443823;32;33921;-82
2022/06/20 00:13:54;;;;;;;1.95;1.00;;;;;;;22.32;46.84;99285.28;4436269;32;34766;-82
2022/06/20 00:16:24;;;;;;;2.20;1.12;;;;;;;22.31;47.09;99283.59;4433402;32;33862;-82
2022/06/20 00:18:54;;;;;;;1.25;1.15;;;;;;;22.31;47.08;99276.50;4446952;32;33823;-82
2022/06/20 00:21:24;;;;;;;2.83;1.20;;;;;;;22.30;46.98;99274.84;4437944;32;33607;-82
2022/06/20 00:23:56;;;;;;;2.05;1.12;;;;;;;22.26;46.83;99264.56;4440289;32;33352;-82
2022/06/20 00:26:25;;;;;;;2.20;1.02;;;;;;;22.08;47.52;99269.25;4430427;32;34556;-82
2022/06/20 00:28:54;;;;;;;2.97;1.37;;;;;;;22.21;47.17;99274.63;4430209;32;32951;-82
2022/06/20 00:31:23;;;;;;;3.45;1.70;;;;;;;22.21;46.86;99266.69;4442922;32;33593;-82
2022/06/20 00:33:52;;;;;;;2.03;1.40;;;;;;;22.16;47.31;99272.25;4446875;32;33564;-82
2022/06/20 00:36:22;;;;;;;1.48;0.98;;;;;;;22.11;47.75;99269.91;4436657;32;34126;-82
2022/06/20 00:38:53;;;;;;;1.60;1.02;;;;;;;22.10;47.73;99267.38;4432251;32;35939;-82
2022/06/20 00:41:26;;;;;;;4.87;1.58;;;;;;;22.01;47.81;99266.22;4435245;32;33750;-82
2022/06/20 00:43:55;;;;;;;3.03;1.55;;;;;;;21.94;47.73;99270.22;4438172;32;33997;-82
2022/06/20 00:46:47;;;;;;;1.73;1.15;;;;;;;21.88;48.05;99260.03;4435714;32;36441;-82
2022/06/20 00:49:37;;;;;;;3.42;1.92;;;;;;;21.87;48.17;99268.94;4438757;32;35080;-82
2022/06/20 00:52:34;;;;;;;1.85;1.05;;;;;;;21.90;48.25;99263.44;4433838;32;35612;-82
2022/06/20 00:55:23;;;;;;;1.10;1.00;;;;;;;21.71;48.54;99254.06;4432170;32;35810;-82
2022/06/20 00:58:18;;;;;;;2.35;1.30;;;;;;;21.71;48.75;99254.06;4432421;32;35682;-82
2022/06/20 01:01:06;;;;;;;2.37;1.37;;;;;;;21.69;49.06;99240.13;4436384;32;34257;-82
2022/06/20 01:03:56;;;;;;;1.98;1.30;;;;;;;21.68;49.13;99238.44;4447847;32;35751;-83
2022/06/20 01:06:48;;;;;;;2.30;1.40;;;;;;;21.80;48.76;99238.59;4447703;32;35818;-84
2022/06/20 01:09:42;;;;;;;2.25;1.40;;;;;;;21.72;48.90;99241.72;4447667;32;35542;-82
2022/06/20 01:12:30;;;;;;;1.58;1.10;;;;;;;21.62;49.22;99238.84;4439013;32;35032;-82
2022/06/20 01:15:21;;;;;;;1.80;1.12;;;;;;;21.67;49.03;99234.13;4447595;32;34608;-82
2022/06/20 01:18:14;;;;;;;2.70;1.40;;;;;;;21.62;49.17;99240.63;4447531;32;34800;-82
2022/06/20 01:21:06;;;;;;;3.80;1.80;;;;;;;21.43;49.75;99227.81;4452478;32;35486;-82
2022/06/20 01:24:02;;;;;;;3.15;1.55;;;;;;;21.51;49.53;99221.09;4453112;32;35134;-82
2022/06/20 01:26:56;;;;;;;2.92;1.55;;;;;;;21.46;49.60;99211.78;4437881;32;34603;-82
2022/06/20 01:29:49;;;;;;;1.80;1.10;;;;;;;21.43;49.81;99211.97;4437374;32;34717;-82
2022/06/20 01:32:38;;;;;;;1.80;1.40;;;;;;;21.47;49.42;99200.28;4440954;32;35252;-82
2022/06/20 01:38:31;;;;;;;1.92;1.40;;;;;;;21.27;50.08;99201.56;4439466;32;35714;-83
2022/06/20 01:44:24;;;;;;;2.30;1.40;;;;;;;21.28;50.28;99209.34;4432120;32;34661;-82
2022/06/20 01:47:13;;;;;;;1.52;1.10;;;;;;;21.15;50.74;99205.00;4432095;32;35091;-82
2022/06/20 01:50:03;;;;;;;3.97;1.70;;;;;;;21.15;50.75;99199.72;4447153;32;34659;-82
2022/06/20 01:52:50;;;;;;;2.53;1.27;;;;;;;21.22;50.82;99201.84;4447420;32;34763;-82
2022/06/20 01:55:38;;;;;;;1.48;1.00;;;;;;;21.33;50.36;99209.06;4447331;32;34692;-82
2022/06/20 01:58:27;;;;;;;2.95;1.27;;;;;;;21.34;50.56;99207.28;4439134;32;35022;-83
2022/06/20 02:01:15;;;;;;;2.60;1.65;;;;;;;21.31;50.58;99206.53;4431409;32;35541;-83
2022/06/20 02:04:08;;;;;;;2.55;1.52;;;;;;;21.31;50.99;99188.06;4436116;32;35615;-82
2022/06/20 02:06:55;;;;;;;2.40;1.30;;;;;;;21.30;51.20;99190.78;4437210;32;34709;-83
2022/06/20 02:09:43;;;;;;;2.92;1.35;;;;;;;21.19;51.25;99188.88;4437351;32;34008;-82
2022/06/20 02:12:32;;;;;;;2.28;1.40;;;;;;;21.17;51.49;99182.84;4431791;32;34576;-82
2022/06/20 02:15:20;;;;;;;3.03;1.50;;;;;;;21.15;51.60;99175.97;4431463;32;35799;-82
2022/06/20 02:18:09;;;;;;;2.47;1.35;;;;;;;21.21;51.28;99172.91;4431922;32;34696;-82
2022/06/20 02:21:00;;;;;;;2.15;1.40;;;;;;;21.08;51.72;99172.88;4431948;32;34097;-82
2022/06/20 02:23:48;;;;;;;;;;;;;;;20.92;52.27;99172.19;4432574;32;34095;-82
2022/06/20 02:26:38;;;;;;;2.78;1.45;;;;;;;21.10;51.96;99166.56;4445283;32;35035;-82
2022/06/20 02:29:27;;;;;;;1.90;1.30;;;;;;;21.08;52.08;99167.59;4446326;32;34813;-82
2022/06/20 02:32:17;;;;;;;2.62;1.45;;;;;;;21.07;52.43;99172.03;4445558;32;33696;-81
2022/06/20 02:35:06;;;;;;;2.00;1.20;;;;;;;21.04;52.55;99169.59;4446720;32;35618;-81
2022/06/20 02:37:55;;;;;;;2.45;1.37;;;;;;;21.16;51.90;99164.47;4432045;32;35828;-82
2022/06/20 02:40:42;;;;;;;2.58;1.27;;;;;;;21.06;52.12;99159.78;4436899;32;34584;-81
2022/06/20 02:43:37;;;;;;;2.10;1.40;;;;;;;21.16;51.85;99151.28;4438002;32;34073;-83
2022/06/20 02:46:27;;;;;;;2.47;1.23;;;;;;;21.24;52.05;99156.91;4442378;32;34584;-81
2022/06/20 02:49:15;;;;;;;2.28;1.30;;;;;;;21.24;52.22;99156.91;4448933;32;34697;-81
2022/06/20 02:52:05;;;;;;;5.43;1.55;;;;;;;20.98;52.91;99162.09;4448702;32;34546;-81
2022/06/20 02:54:54;;;;;;;3.10;1.90;;;;;;;20.95;52.95;99158.78;4448582;32;33991;-81
2022/06/20 02:57:44;;;;;;;1.83;1.40;;;;;;;21.03;52.70;99159.16;4436464;32;34742;-81
2022/06/20 03:00:35;;;;;;;2.23;1.43;;;;;;;21.10;52.53;99155.19;4432883;32;35815;-82
2022/06/20 03:03:26;;;;;;;3.37;1.35;;;;;;;20.83;53.23;99165.72;4432807;32;34357;-81
2022/06/20 03:06:19;;;;;;;2.35;1.48;;;;;;;20.85;53.15;99159.41;4433054;32;35187;-82
2022/06/20 03:09:07;;;;;;;3.05;1.42;;;;;;;20.88;53.36;99151.28;4433211;32;35639;-83
2022/06/20 03:11:56;;;;;;;4.70;1.60;;;;;;;20.60;53.98;99149.56;4433494;32;34759;-81
2022/06/20 03:14:47;;;;;;;3.12;1.52;;;;;;;20.81;53.56;99155.25;4433171;32;34543;-83
2022/06/20 03:17:34;;;;;;;3.28;1.67;;;;;;;20.78;53.74;99152.81;4438967;32;34132;-83
2022/06/20 03:20:25;;;;;;;2.62;1.55;;;;;;;20.69;54.04;99149.94;4438584;32;34694;-83
2022/06/20 03:23:17;;;;;;;2.70;1.40;;;;;;;20.79;54.34;99156.31;4438588;32;35456;-83
2022/06/20 03:26:09;;;;;;;2.80;1.50;;;;;;;20.74;54.83;99153.13;4444458;32;35797;-84
2022/06/20 03:28:59;;;;;;;2.37;1.48;;;;;;;20.36;56.18;99149.25;4448571;32;34369;-84
2022/06/20 03:31:46;;;;;;;1.85;1.20;;;;;;;20.62;55.85;99149.47;4447632;32;35592;-83
2022/06/20 03:34:34;;;;;;;3.00;1.52;;;;;;;20.73;55.37;99146.13;4448328;32;35782;-83
2022/06/20 03:37:24;;;;;;;3.62;1.75;;;;;;;20.95;54.34;99153.50;4448301;32;34598;-83
2022/06/20 03:40:13;;;;;;;2.47;1.50;;;;;;;21.14;54.04;99138.19;4448528;32;34036;-83
2022/06/20 03:43:01;;;;;;;4.00;1.52;;;;;;;21.10;54.34;99137.56;4447516;32;35551;-84
2022/06/20 03:45:52;;;;;;;5.15;1.67;;;;;;;21.21;54.10;99136.84;4448508;32;35772;-84
2022/06/20 03:48:42;;;;;;;2.10;1.52;;;;;;;20.75;54.95;99146.87;4448478;32;34617;-83
2022/06/20 03:51:33;;;;;;;2.53;1.50;;;;;;;20.84;54.89;99138.41;4443680;32;34096;-84
2022/06/20 03:54:21;;;;;;;;;;;;;;;20.76;54.81;99140.69;4438757;32;34694;-84
2022/06/20 03:57:12;;;;;;;4.18;1.85;;;;;;;21.14;53.51;99138.19;4438476;32;35095;-83
2022/06/20 04:00:06;;;;;;;2.53;1.83;;;;;;;21.44;52.86;99145.06;4438309;32;35547;-83
2022/06/20 04:03:00;;;;;;;5.72;2.00;;;;;;;21.63;52.98;99140.25;4445104;32;36062;-83
2022/06/20 04:05:51;;;;;;;4.47;1.90;;;;;;;21.75;53.52;99143.84;4432797;32;35524;-84
2022/06/20 04:11:51;;;;;;;5.80;1.90;;;;;;;21.56;54.42;99144.25;4438962;32;35548;-83
2022/06/20 04:14:46;;;;;;;2.67;1.55;;;;;;;21.61;53.66;99147.41;4448323;32;34178;-84
2022/06/20 04:20:48;;;;;;;1.92;1.33;;;;;;;21.99;52.37;99154.53;4448171;32;34775;-83
2022/06/20 04:23:38;;;;;;;3.50;1.80;;;;;;;22.31;51.64;99148.84;4432169;32;34859;-83
2022/06/20 04:26:28;;;;;;;3.83;2.00;;;;;;;22.33;52.31;99141.66;4446427;32;34290;-83
2022/06/20 04:29:20;;;;;;;2.42;1.58;;;;;;;22.52;52.33;99144.66;4448174;32;34753;-84
2022/06/20 04:32:13;;;;;;;3.58;1.70;;;;;;;22.55;52.73;99143.59;4447156;32;35771;-84
2022/06/20 04:35:03;;;;;;;3.97;2.15;;;;;;;22.89;51.45;99149.09;4447976;32;34701;-84
2022/06/20 04:37:56;;;;;;;2.95;2.03;;;;;;;22.99;51.19;99150.16;4447787;32;34188;-84
2022/06/20 04:40:47;;;;;;;4.47;2.45;;;;;;;23.47;49.87;99144.81;4448120;32;34662;-84
2022/06/20 04:43:39;;;;;;;3.60;2.43;;;;;;;24.27;48.03;99144.84;4432392;32;35743;-84
2022/06/20 04:46:31;;;;;;;3.92;1.67;;;;;;;24.73;45.73;99140.37;4438111;32;35413;-85
2022/06/20 04:49:18;;;;;;;3.47;1.58;;;;;;;25.83;42.69;99145.47;4438275;32;34981;-84
2022/06/20 04:52:08;;;;;;;2.40;1.37;;;;;;;25.86;42.02;99138.16;4444982;32;34800;-84
2022/06/20 04:54:57;;;;;;;3.78;1.62;;;;;;;27.35;39.51;99154.31;4449029;32;34746;-84
2022/06/20 04:57:46;;;;;;;3.70;1.77;;;;;;;28.13;37.66;99142.69;4447983;32;35466;-85
2022/06/20 05:00:37;;;;;;;5.15;1.95;;;;;;;28.50;36.65;99143.53;4447748;32;33930;-85
2022/06/20 05:03:30;;;;;;;3.30;1.75;;;;;;;29.40;35.13;99140.97;4433120;32;34697;-85
2022/06/20 05:06:20;;;;;;;3.55;1.77;;;;;;;28.73;36.53;99143.12;4431702;32;34777;-84
2022/06/20 05:09:13;;;;;;;3.47;1.75;;;;;;;29.22;35.42;99146.31;4432281;32;35309;-84
2022/06/20 05:12:07;;;;;;;3.45;1.65;;;;;;;28.90;35.43;99146.81;4438978;32;35144;-85
2022/06/20 05:15:00;;;;;;;4.47;1.85;;;;;;;29.01;35.46;99153.75;4447822;32;34670;-85
2022/06/20 05:17:48;;;;;;;4.15;1.70;;;;;;;27.98;38.02;99152.97;4447857;32;34786;-84
2022/06/20 05:20:38;;;;;;;2.80;1.70;;;;;;;28.46;37.16;99152.84;4447742;32;34867;-85
2022/06/20 05:23:31;;;;;;;3.70;1.83;;;;;;;28.01;37.72;99152.69;4433107;32;34355;-85
2022/06/20 05:26:22;;;;;;;3.92;2.00;;;;;;;28.42;37.60;99151.41;4450980;32;35647;-85
2022/06/20 05:29:15;;;;;;;3.58;1.52;;;;;;;28.66;37.69;99156.25;4453106;32;34776;-85
2022/06/20 05:32:16;;;;;;;4.47;1.90;;;;;;;28.65;37.73;99159.03;4449275;32;34603;-84
2022/06/20 05:35:07;;;;;;;5.28;1.95;;;;;;;28.46;37.93;99159.97;4437406;32;34820;-86
2022/06/20 05:37:39;;;;;;;2.42;1.60;;;;;;;28.50;37.82;99148.88;4431729;32;33899;-85
2022/06/20 05:40:15;;;;;;;5.18;1.52;;;;;;;28.79;37.42;99160.38;4432002;32;33985;-84
2022/06/20 05:42:44;;;;;;;2.80;1.45;;;;;;;28.70;37.00;99162.94;4442297;32;33863;-84
2022/06/20 05:45:20;;;;;;;2.40;1.20;;;;;;;28.94;35.44;99159.69;4440563;32;33449;-85
2022/06/20 05:47:52;;;;;;;5.12;1.75;;;;;;;29.07;35.41;99158.53;4437564;32;33572;-85
2022/06/20 05:50:38;;;;;;;1.73;1.23;;;;;;;28.92;35.80;99151.03;4434638;32;34031;-85
2022/06/20 05:53:13;;;;;;;2.40;1.30;;;;;;;28.97;36.47;99155.91;4442676;32;33284;-85
2022/06/20 05:55:45;;;;;;;3.55;1.52;;;;;;;29.25;35.72;99156.69;4437621;32;34142;-85
2022/06/20 05:58:19;;;;;;;3.25;1.60;;;;;;;29.29;35.59;99162.59;4447002;32;33457;-84
2022/06/20 06:00:51;;;;;;;4.30;1.75;;;;;;;29.00;35.04;99160.09;4447319;32;34663;-85
2022/06/20 06:03:23;;;;;;;5.82;1.98;;;;;;;29.03;34.97;99170.47;4438482;32;33712;-85
2022/06/20 06:05:56;;;;;;;4.22;1.42;;;;;;;28.18;36.77;99175.09;4439503;32;32243;-86
2022/06/20 06:08:27;;;;;;;3.08;1.50;;;;;;;27.81;38.46;99170.50;4447386;32;33891;-86
2022/06/20 06:11:20;;;;;;;3.78;1.58;;;;;;;27.58;38.25;99168.16;4446294;32;34796;-86
2022/06/20 06:13:53;;;;;;;5.22;2.40;;;;;;;27.86;37.88;99171.81;4438017;32;34596;-85
2022/06/20 06:19:20;;;;;;;3.05;1.55;;;;;;;27.78;38.73;99162.81;4437506;32;33782;-85
2022/06/20 06:21:49;;;;;;;4.03;1.75;;;;;;;27.74;38.50;99156.06;4439681;32;33867;-85
2022/06/20 06:24:21;;;;;;;4.22;1.90;;;;;;;27.54;39.71;99157.94;4432879;32;33547;-85
2022/06/20 06:26:51;;;;;;;2.28;1.40;;;;;;;27.59;38.82;99158.34;4432933;32;34008;-86
2022/06/20 06:29:23;;;;;;;2.78;1.15;;;;;;;27.87;38.07;99162.81;4441584;32;33487;-85
2022/06/20 06:31:57;;;;;;;3.05;1.50;;;;;;;27.83;39.09;99155.25;4433632;32;33822;-85
2022/06/20 06:34:33;;;;;;;2.42;1.42;;;;;;;27.58;38.94;99149.50;4448747;32;34378;-86
2022/06/20 06:37:06;;;;;;;4.30;1.65;;;;;;;27.83;38.76;99158.75;4438031;32;34075;-86
2022/06/20 06:39:39;;;;;;;2.37;1.35;;;;;;;28.00;38.92;99156.31;4432646;32;34382;-86
2022/06/20 06:42:16;;;;;;;3.83;1.67;;;;;;;28.02;38.42;99157.03;4434395;32;34679;-86
2022/06/20 06:44:48;;;;;;;3.40;1.40;;;;;;;28.25;38.28;99155.69;4438871;32;33502;-85
2022/06/20 06:47:23;;;;;;;3.17;1.33;;;;;;;28.23;37.30;99152.31;4439258;32;34148;-86
2022/06/20 06:49:55;;;;;;;2.15;1.17;;;;;;;28.22;38.36;99150.66;4435493;32;33822;-87
2022/06/20 06:52:29;;;;;;;2.15;1.37;;;;;;;28.18;37.28;99149.25;4438111;32;33855;-86
2022/06/20 06:59:27;;;;;;;2.55;1.17;;;;;;;28.50;37.25;99159.53;4433320;32;34140;-85
2022/06/20 07:01:59;;;;;;;3.30;1.23;;;;;;;28.74;37.04;99150.16;4436541;32;33904;-85
2022/06/20 07:04:33;;;;;;;3.03;1.50;;;;;;;28.89;36.97;99143.28;4435918;32;34252;-86
2022/06/20 07:07:06;;;;;;;4.32;1.35;;;;;;;28.77;37.77;99144.50;4439371;32;34066;-85
2022/06/20 07:09:43;;;;;;;2.87;1.48;;;;;;;29.08;37.61;99138.84;4441959;32;33078;-85
2022/06/20 07:12:18;;;;;;;1.27;0.98;;;;;;;28.75;37.52;99133.13;4441650;32;34315;-85
2022/06/20 07:14:53;;;;;;;1.60;1.08;;;;;;;29.05;37.02;99125.78;4440779;32;33439;-85
2022/06/20 07:17:27;;;;;;;3.42;1.50;;;;;;;28.90;35.99;99123.63;4445791;32;33931;-85
2022/06/20 07:20:00;;;;;;;4.62;1.30;;;;;;;29.11;36.89;99120.66;4438648;32;33847;-85
2022/06/20 07:22:35;;;;;;;1.73;1.33;;;;;;;29.12;36.18;99122.38;4433712;32;34567;-86
2022/06/20 07:25:05;;;;;;;1.92;1.30;;;;;;;29.27;35.98;99122.66;4436493;32;33832;-86
2022/06/20 07:27:36;;;;;;;2.65;1.50;;;;;;;29.05;36.23;99115.94;4442911;32;33923;-85
2022/06/20 07:30:10;;;;;;;3.90;1.65;;;;;;;29.19;36.64;99119.94;4438884;32;32904;-85
2022/06/20 07:32:42;;;;;;;4.82;1.98;;;;;;;29.16;36.45;99117.53;4451540;32;34565;-85
2022/06/20 07:35:15;;;;;;;2.85;1.50;;;;;;;29.23;37.11;99117.78;4447147;32;34982;-85
2022/06/20 07:37:49;;;;;;;4.35;2.33;;;;;;;29.08;36.11;99110.31;4446722;32;33511;-86
2022/06/20 07:40:21;;;;;;;2.83;1.58;;;;;;;29.35;36.45;99116.53;4447260;32;34021;-86
2022/06/20 07:42:54;;;;;;;4.15;1.40;;;;;;;29.39;36.60;99101.87;4442153;32;33536;-86
2022/06/20 07:45:26;;;;;;;4.37;1.70;;;;;;;29.64;36.91;99099.38;4438326;32;33524;-86
2022/06/20 07:47:56;;;;;;;2.87;2.00;;;;;;;29.46;36.57;99100.28;4438130;32;33155;-86
2022/06/20 07:50:31;;;;;;;3.92;1.98;;;;;;;29.68;36.53;99098.94;4432235;32;34030;-85
2022/06/20 07:53:07;;;;;;;4.10;1.90;;;;;;;29.54;37.19;99096.81;4431985;32;34479;-86
2022/06/20 07:55:40;;;;;;;3.28;1.42;;;;;;;29.73;37.03;99093.97;4445186;32;34617;-86
2022/06/20 07:58:19;;;;;;;3.42;1.73;;;;;;;29.84;37.32;99098.22;4441279;32;34639;-86
2022/06/20 08:00:53;;;;;;;3.47;1.55;;;;;;;29.89;37.06;99100.41;4435747;32;33558;-86
2022/06/20 08:03:26;;;;;;;3.30;1.75;;;;;;;30.08;36.40;99093.97;4444875;32;34503;-85
2022/06/20 08:06:00;;;;;;;4.50;1.95;;;;;;;30.05;36.81;99097.81;4440347;32;33692;-86
2022/06/20 08:08:36;;;;;;;2.90;1.35;;;;;;;30.10;37.00;99095.50;4432284;32;33578;-85
2022/06/20 08:11:08;;;;;;;2.85;1.77;;;;;;;30.16;36.65;99092.19;4432260;32;34086;-84
2022/06/20 08:13:40;;;;;;;3.90;2.08;;;;;;;30.24;35.42;99085.19;4438822;32;33460;-86
2022/06/20 08:16:13;;;;;;;3.55;1.58;;;;;;;30.07;37.45;99085.13;4449757;32;33548;-85
2022/06/20 08:18:42;;;;;;;4.72;1.87;;;;;;;30.25;36.64;99084.19;4447003;32;33138;-85
2022/06/20 08:21:17;;;;;;;3.28;1.50;;;;;;;30.31;35.31;99080.91;4445404;32;33426;-85
2022/06/20 08:23:48;;;;;;;4.15;1.80;;;;;;;30.46;35.17;99075.78;4443347;32;33565;-87
2022/06/20 08:26:21;;;;;;;2.97;1.90;;;;;;;30.23;36.39;99078.16;4445075;32;33809;-85
2022/06/20 08:28:55;;;;;;;4.95;1.80;;;;;;;30.73;34.83;99085.38;4450990;32;34010;-87
2022/06/20 08:31:30;;;;;;;2.67;1.58;;;;;;;30.70;34.43;99072.31;4434996;32;33893;-85
2022/06/20 08:34:03;;;;;;;3.65;1.65;;;;;;;30.37;35.83;99066.88;4439327;32;34548;-83
2022/06/20 08:36:40;;;;;;;2.78;1.55;;;;;;;30.81;35.82;99074.69;4444180;32;33905;-84
2022/06/20 08:39:17;;;;;;;3.72;1.67;;;;;;;31.03;34.15;99082.09;4439458;32;33915;-83
2022/06/20 08:42:25;;;;;;;2.83;1.55;;;;;;;30.78;34.89;99081.22;4441235;32;33502;-84
2022/06/20 08:45:22;;;;;;;4.65;2.00;;;;;;;31.12;34.33;99068.69;4425100;32;34560;-83
2022/06/20 08:48:15;;;;;;;5.95;2.47;;;;;;;31.09;34.88;99075.22;4442932;32;34998;-84
2022/06/20 08:51:16;;;;;;;8.13;2.08;;;;;;;31.12;33.75;99066.88;4449159;32;33674;-84
2022/06/20 08:54:29;;;;;;;5.03;2.33;;;;;;;31.26;34.88;99070.72;4445078;32;34173;-84
2022/06/20 08:57:06;;;;;;;4.32;1.85;;;;;;;31.43;34.53;99072.38;4444764;32;33398;-84
2022/06/20 08:59:59;;;;;;;5.53;1.85;;;;;;;31.60;33.88;99069.69;4438824;32;34986;-85
2022/06/20 09:02:38;;;;;;;3.90;1.98;;;;;;;31.20;33.07;99072.22;4437137;32;33444;-85
2022/06/20 09:05:19;;;;;;;18.83;2.00;;;;;;;31.64;33.81;99054.94;4439993;32;32769;-85
2022/06/20 09:08:07;;;;;;;4.25;1.80;;;;;;;31.63;34.27;99063.97;4442337;32;33660;-84
2022/06/20 09:10:46;;;;;;;5.93;2.30;;;;;;;31.92;31.88;99057.19;4444189;32;33545;-84
2022/06/20 09:13:43;;;;;;;3.70;2.05;;;;;;;32.15;32.30;99050.09;4441272;32;33520;-84
2022/06/20 09:16:23;;;;;;;3.60;1.42;;;;;;;32.20;32.09;99045.03;4442922;32;33396;-84
2022/06/20 09:19:13;;;;;;;3.05;1.45;;;;;;;32.36;32.33;99043.31;4443081;32;34299;-84
2022/06/20 09:21:56;;;;;;;3.87;2.05;;;;;;;32.21;32.41;99032.47;4456472;32;32786;-85
2022/06/20 09:24:33;;;;;;;2.75;1.48;;;;;;;32.44;32.45;99022.59;4449869;32;32534;-83
2022/06/20 09:27:08;;;;;;;8.63;1.50;;;;;;;32.55;31.81;99026.78;4444087;32;33335;-84
2022/06/20 09:29:55;;;;;;;4.10;2.10;;;;;;;32.22;29.47;99026.09;4430515;32;33371;-85
2022/06/20 09:32:56;;;;;;;2.80;1.42;;;;;;;32.39;31.50;99014.25;4439028;32;93002;-84
2022/06/20 09:35:52;;;;;;;2.12;1.23;;;;;;;32.61;30.86;99011.78;4415774;32;32716;-84
2022/06/20 09:38:40;;;;;;;3.20;1.48;;;;;;;32.71;31.33;99002.47;4442773;32;32702;-84
2022/06/20 09:41:17;;;;;;;3.40;1.90;;;;;;;32.82;29.73;98993.16;4442131;32;34480;-85
2022/06/20 09:43:52;;;;;;;3.05;1.60;;;;;;;32.95;30.94;98995.22;4443145;32;33964;-84
2022/06/20 09:46:27;;;;;;;2.53;1.35;;;;;;;32.99;30.61;98991.19;4443312;32;34134;-84
2022/06/20 09:49:03;;;;;;;3.47;1.83;;;;;;;32.97;30.33;98998.59;4450638;32;33735;-84
2022/06/20 09:51:39;;;;;;;2.37;1.60;;;;;;;33.21;29.09;98996.72;4443942;32;34080;-84
2022/06/20 09:54:14;;;;;;;2.10;1.50;;;;;;;33.24;31.25;98996.34;4443795;32;34777;-84
2022/06/20 09:56:48;;;;;;;2.42;1.55;;;;;;;33.10;30.92;98987.22;4441689;32;34116;-85
2022/06/20 09:59:24;;;;;;;3.45;1.70;;;;;;;33.45;30.75;98987.56;4444115;32;33671;-84
2022/06/20 10:02:00;;;;;;;3.03;1.58;;;;;;;33.51;30.38;98992.19;4447123;32;33574;-84
2022/06/20 10:04:47;;;;;;;2.70;1.67;;;;;;;33.57;29.35;98986.94;4448210;32;33713;-85
2022/06/20 10:07:42;;;;;;;4.28;1.37;;;;;;;33.88;29.70;98983.22;4444391;32;33549;-85
2022/06/20 10:10:16;;;;;;;3.15;1.70;;;;;;;33.88;28.08;98977.00;4437688;32;33918;-84
2022/06/20 10:12:48;;;;;;;2.72;1.67;;;;;;;33.87;29.45;98976.16;4442238;32;34556;-84
2022/06/20 10:15:31;;;;;;;2.95;1.30;;;;;;;33.98;29.13;98978.38;4443099;32;33383;-84
2022/06/20 10:18:04;;;;;;;3.00;1.80;;;;;;;34.19;29.54;98979.47;4443303;32;33877;-85
2022/06/20 10:20:38;;;;;;;2.10;1.37;;;;;;;33.91;28.19;98971.25;4443097;32;33268;-85
2022/06/20 10:23:22;;;;;;;2.33;1.40;;;;;;;34.22;29.48;98972.87;4433378;32;32099;-85
2022/06/20 10:26:02;;;;;;;3.37;1.67;;;;;;;34.13;28.67;98962.22;4442434;32;33584;-86
2022/06/20 10:28:36;;;;;;;3.60;1.70;;;;;;;34.35;28.45;98968.47;4443031;32;33615;-84
2022/06/20 10:31:09;;;;;;;3.97;1.65;;;;;;;34.57;27.95;98965.78;4440820;32;32841;-86
2022/06/20 10:33:47;;;;;;;2.40;1.35;;;;;;;34.70;26.71;98965.09;4441294;32;33495;-85
2022/06/20 10:36:21;;;;;;;2.03;1.37;;;;;;;34.78;25.38;98965.78;4443105;32;34700;-84
2022/06/20 10:39:09;;;;;;;3.30;1.48;;;;;;;34.78;26.43;98959.56;4448133;32;34866;-84
2022/06/20 10:41:45;;;;;;;4.30;2.00;;;;;;;34.94;26.74;98961.12;4445198;32;33161;-85
2022/06/20 10:44:22;;;;;;;3.85;1.60;;;;;;;35.17;25.84;98950.97;4442614;32;33817;-85
2022/06/20 10:47:00;;;;;;;2.05;1.20;;;;;;;35.45;24.41;98953.66;4443437;32;34494;-85
2022/06/20 10:49:41;;;;;;;2.55;1.37;;;;;;;35.60;23.57;98952.72;4443777;32;33299;-85
2022/06/20 10:52:28;;;;;;;1.95;1.20;;;;;;;35.51;23.73;98952.00;4439150;32;32962;-85
2022/06/20 10:55:04;;;;;;;4.18;1.40;;;;;;;35.59;24.26;98943.78;4444573;32;34467;-84
2022/06/20 10:57:46;;;;;;;3.10;1.40;;;;;;;35.81;24.10;98946.34;4439048;32;34039;-84
2022/06/20 11:00:17;;;;;;;2.12;1.20;;;;;;;35.61;23.79;98941.72;4438829;32;34471;-84
2022/06/20 11:02:57;;;;;;;1.60;1.00;;;;;;;35.87;23.10;98940.16;4437077;32;36307;-84
2022/06/20 11:05:31;;;;;;;2.67;1.05;;;;;;;35.89;21.89;98940.81;4440754;32;33937;-84
2022/06/20 11:08:05;;;;;;;1.33;0.77;;;;;;;36.18;22.35;98934.28;4441223;32;34049;-85
2022/06/20 11:10:46;;;;;;;1.87;1.05;;;;;;;36.04;21.54;98927.97;4436632;32;33573;-84
2022/06/20 11:13:23;;;;;;;1.85;1.20;;;;;;;36.49;20.78;98930.19;4436807;32;32717;-85
2022/06/20 11:15:56;;;;;;;4.00;2.20;;;;;;;36.50;20.58;98929.13;4442875;32;34362;-86
2022/06/20 11:18:41;;;;;;;3.12;1.48;;;;;;;36.53;20.95;98921.44;4438180;32;34895;-84
2022/06/20 11:21:17;;;;;;;1.90;1.00;;;;;;;36.28;22.38;98920.38;4437613;32;32296;-84
2022/06/20 11:23:52;;;;;;;1.87;1.30;;;;;;;36.28;23.02;98921.19;4439553;32;33508;-85
2022/06/20 11:26:29;;;;;;;2.78;1.50;;;;;;;36.67;22.18;98913.38;4442361;32;33812;-84
2022/06/20 11:29:13;;;;;;;2.03;1.10;;;;;;;37.06;21.20;98912.50;4446264;32;33890;-84
2022/06/20 11:31:52;;;;;;;3.80;1.37;;;;;;;37.24;21.85;98919.97;4444411;32;34024;-84
2022/06/20 11:34:42;;;;;;;3.45;1.08;;;;;;;37.20;22.03;98910.63;4447114;32;33193;-85
2022/06/20 11:37:27;;;;;;;2.50;1.30;;;;;;;37.15;21.14;98918.53;4437741;32;34493;-85
2022/06/20 11:40:09;;;;;;;1.33;1.02;;;;;;;37.33;21.34;98916.00;4440207;32;33913;-84
2022/06/20 11:42:57;;;;;;;2.15;1.25;;;;;;;37.37;19.81;98913.69;4437776;32;33787;-85
2022/06/20 11:45:40;;;;;;;1.75;1.08;;;;;;;37.42;19.53;98926.59;4441079;32;34272;-83
2022/06/20 11:48:20;;;;;;;2.30;1.17;;;;;;;37.46;19.13;98928.66;4432850;32;33542;-84
2022/06/20 11:50:54;;;;;;;1.85;1.20;;;;;;;37.42;19.13;98930.12;4442967;32;33591;-83
2022/06/20 11:53:32;;;;;;;1.25;0.70;;;;;;;37.45;19.11;98920.75;4448170;32;33193;-84
2022/06/20 11:56:05;;;;;;;3.85;1.23;;;;;;;37.55;18.79;98913.03;4454023;32;34051;-84
2022/06/20 11:59:13;;;;;;;1.73;0.98;;;;;;;37.70;19.74;98918.19;4448531;32;34399;-84
2022/06/20 12:01:46;;;;;;;2.53;1.10;;;;;;;37.75;19.56;98924.63;4442936;32;34036;-84
2022/06/20 12:04:21;;;;;;;1.58;0.75;;;;;;;37.77;18.19;98914.41;4438241;32;33437;-84
2022/06/20 12:06:56;;;;;;;2.10;0.98;;;;;;;37.63;19.79;98906.56;4447630;32;32898;-83
2022/06/20 12:09:32;;;;;;;2.00;1.20;;;;;;;38.03;19.92;98914.50;4435777;32;33867;-85
2022/06/20 12:12:15;;;;;;;4.57;1.40;;;;;;;38.39;19.99;98911.16;4435143;32;34934;-84
2022/06/20 12:14:52;;;;;;;1.70;1.02;;;;;;;38.67;19.44;98908.03;4437943;32;35462;-83
2022/06/20 12:17:30;;;;;;;1.80;1.20;;;;;;;38.62;17.64;98906.00;4443964;32;33204;-84
2022/06/20 12:23:24;;;;;;;1.75;1.30;;;;;;;38.76;17.76;98895.03;4431038;32;34148;-85
2022/06/20 12:26:00;;;;;;;0.80;0.75;;;;;;;38.85;17.43;98907.25;4434690;32;33740;-85
2022/06/20 12:28:33;;;;;;;3.90;0.80;;;;;;;39.02;17.50;98889.38;4435915;32;33924;-84
2022/06/20 12:31:18;;;;;;;1.17;0.85;;;;;;;38.95;17.96;98895.91;4437000;32;33471;-84
2022/06/20 12:33:55;;;;;;;1.48;0.70;;;;;;;38.69;16.71;98886.16;4440545;32;33413;-85
2022/06/20 12:36:31;;;;;;;2.33;1.02;;;;;;;38.87;17.37;98886.16;4449386;32;33773;-85
2022/06/20 12:39:08;;;;;;;2.05;0.98;;;;;;;38.84;17.01;98881.19;4450187;32;34054;-85
2022/06/20 12:41:40;;;;;;;1.77;1.00;;;;;;;39.03;17.33;98868.53;4439177;32;33427;-85
2022/06/20 12:44:20;;;;;;;2.62;0.93;;;;;;;39.01;17.62;98871.44;4437933;32;33156;-84
2022/06/20 12:47:11;;;;;;;1.73;0.95;;;;;;;39.04;16.54;98867.44;4441764;32;33599;-86
2022/06/20 12:49:55;;;;;;;3.37;1.55;;;;;;;39.03;16.20;98863.91;4435792;32;33166;-84
2022/06/20 12:52:30;;;;;;;1.20;0.70;;;;;;;39.03;16.49;98866.63;4438872;32;33917;-84
2022/06/20 12:55:22;;;;;;;1.92;0.88;;;;;;;39.16;17.54;98862.94;4445069;32;34667;-85
2022/06/20 12:58:21;;;;;;;1.33;0.93;;;;;;;39.18;17.15;98855.41;4445222;32;33687;-85
2022/06/20 13:00:52;;;;;;;1.60;0.98;;;;;;;39.39;16.31;98875.03;4448940;32;33467;-85
2022/06/20 13:03:46;;;;;;;1.87;0.90;;;;;;;39.27;16.13;98866.78;4445308;32;34203;-85
2022/06/20 13:06:53;;;;;;;3.28;1.10;;;;;;;39.40;17.28;98863.94;4443439;32;33851;-84